Time;durP1;ratioP1;P1;durP2;ratioP2;P2;SDS_P1;SDS_P2;PMS_P1;PMS_P2;Temp;Humidity;BMP_temperature;BMP_pressure;BME280_temperature;BME280_humidity;BME280_pressure;Samples;Min_cycle;Max_cycle;Signal;HPM_P1;HPM_P2
2023/05/01 00:02:40;;;;;;;16.23;8.20;;;;;;;;;;10326633;28;20062;-81
2023/05/01 00:07:41;;;;;;;16.37;7.77;;;;;;;;;;10329990;28;20084;-82
2023/05/01 00:12:44;;;;;;;19.20;8.63;;;;;;;;;;10322474;28;20112;-81
2023/05/01 00:17:45;;;;;;;22.00;8.70;;;;;;;;;;10323982;28;20461;-81
2023/05/01 00:22:46;;;;;;;19.60;8.63;;;;;;;;;;10304779;28;20567;-81
2023/05/01 00:27:47;;;;;;;17.63;8.30;;;;;;;;;;10308070;28;20037;-82
2023/05/01 00:32:48;;;;;;;15.03;7.00;;;;;;;;;;10332672;28;20057;-81
2023/05/01 00:37:50;;;;;;;15.53;7.13;;;;;;;;;;10325767;28;20030;-82
2023/05/01 00:42:51;;;;;;;16.47;6.67;;;;;;;;;;10322637;28;20049;-81
2023/05/01 00:47:52;;;;;;;15.53;7.00;;;;;;;;;;10314627;28;20034;-81
2023/05/01 00:52:53;;;;;;;14.87;6.30;;;;;;;;;;10312088;28;20093;-81
2023/05/01 00:57:55;;;;;;;15.20;6.23;;;;;;;;;;10333614;28;20498;-81
2023/05/01 01:02:56;;;;;;;18.20;8.17;;;;;;;;;;10329496;28;20050;-81
2023/05/01 01:08:15;;;;;;;20.30;8.50;;;;;;;;;;10326422;28;20049;-81
2023/05/01 01:13:23;;;;;;;17.77;8.30;;;;;;;;;;10308924;28;20059;-81
2023/05/01 01:18:32;;;;;;;18.47;7.40;;;;;;;;;;10318310;28;20035;-81
2023/05/01 01:23:52;;;;;;;21.43;7.90;;;;;;;;;;10329777;28;20100;-81
2023/05/01 01:29:03;;;;;;;18.60;8.37;;;;;;;;;;10325547;28;20486;-82
2023/05/01 01:34:12;;;;;;;20.63;8.93;;;;;;;;;;10335589;28;20373;-81
2023/05/01 01:39:17;;;;;;;28.90;11.13;;;;;;;;;;10329543;28;20030;-82
2023/05/01 01:44:27;;;;;;;25.53;9.77;;;;;;;;;;10331487;28;20046;-81
2023/05/01 01:49:29;;;;;;;24.03;9.93;;;;;;;;;;10335474;28;20053;-81
2023/05/01 01:54:32;;;;;;;30.43;11.33;;;;;;;;;;10328654;28;20037;-81
2023/05/01 01:59:36;;;;;;;34.33;13.10;;;;;;;;;;10336279;28;20072;-82
2023/05/01 02:04:37;;;;;;;88.07;29.97;;;;;;;;;;10336126;28;20058;-81
2023/05/01 02:09:40;;;;;;;60.50;23.03;;;;;;;;;;10323484;28;20050;-82
2023/05/01 02:14:41;;;;;;;58.33;19.77;;;;;;;;;;10317358;28;20141;-81
2023/05/01 02:19:44;;;;;;;26.60;11.67;;;;;;;;;;10340234;28;20030;-81
2023/05/01 02:24:45;;;;;;;21.53;9.63;;;;;;;;;;10326765;28;20092;-81
2023/05/01 02:29:47;;;;;;;21.17;9.77;;;;;;;;;;10308763;28;20525;-81
2023/05/01 02:34:48;;;;;;;24.47;10.90;;;;;;;;;;10322017;28;20049;-82
2023/05/01 02:39:50;;;;;;;22.70;9.40;;;;;;;;;;10326718;28;20038;-82
2023/05/01 02:44:54;;;;;;;20.63;11.03;;;;;;;;;;10330739;28;20046;-82
2023/05/01 02:49:55;;;;;;;21.93;11.07;;;;;;;;;;10328929;28;20070;-81
2023/05/01 02:54:57;;;;;;;23.57;10.63;;;;;;;;;;10327303;28;20045;-81
2023/05/01 02:59:58;;;;;;;29.73;11.17;;;;;;;;;;10326506;28;20452;-82
2023/05/01 03:04:59;;;;;;;19.73;9.33;;;;;;;;;;10329283;28;20105;-82
2023/05/01 03:10:04;;;;;;;33.70;10.67;;;;;;;;;;10327540;28;20039;-81
2023/05/01 03:15:05;;;;;;;17.93;9.80;;;;;;;;;;10324501;28;20096;-82
2023/05/01 03:20:06;;;;;;;20.77;10.27;;;;;;;;;;10324499;28;20038;-81
2023/05/01 03:25:08;;;;;;;23.60;10.83;;;;;;;;;;10324840;28;20034;-81
2023/05/01 03:30:10;;;;;;;25.40;10.83;;;;;;;;;;10326439;28;20038;-81
2023/05/01 03:35:11;;;;;;;29.10;12.60;;;;;;;;;;10330488;28;20114;-81
2023/05/01 03:40:12;;;;;;;23.10;11.60;;;;;;;;;;10324225;28;20031;-81
2023/05/01 03:45:13;;;;;;;28.17;12.70;;;;;;;;;;10322505;28;20036;-81
2023/05/01 03:50:15;;;;;;;26.93;12.30;;;;;;;;;;10335826;28;20046;-81
2023/05/01 03:55:16;;;;;;;31.27;13.80;;;;;;;;;;10320722;28;20459;-81
2023/05/01 04:00:17;;;;;;;30.20;15.00;;;;;;;;;;10311376;28;20132;-81
2023/05/01 04:05:21;;;;;;;25.57;12.87;;;;;;;;;;10329529;28;20165;-81
2023/05/01 04:10:22;;;;;;;27.20;13.93;;;;;;;;;;10327498;28;20057;-82
2023/05/01 04:15:23;;;;;;;28.20;12.50;;;;;;;;;;10313996;28;20085;-81
2023/05/01 04:20:24;;;;;;;28.90;13.00;;;;;;;;;;10322164;28;20429;-80
2023/05/01 04:25:25;;;;;;;32.37;13.77;;;;;;;;;;10327050;28;20026;-82
2023/05/01 04:30:27;;;;;;;26.70;12.33;;;;;;;;;;10309486;28;20473;-81
2023/05/01 04:35:30;;;;;;;28.07;13.30;;;;;;;;;;10322682;28;20034;-82
2023/05/01 04:40:31;;;;;;;26.97;13.67;;;;;;;;;;10331327;28;20034;-81
2023/05/01 04:45:32;;;;;;;31.53;15.13;;;;;;;;;;10315784;28;20037;-82
2023/05/01 04:50:33;;;;;;;28.10;11.37;;;;;;;;;;10329268;28;20049;-82
2023/05/01 04:55:35;;;;;;;25.03;10.40;;;;;;;;;;10324751;28;20034;-81
2023/05/01 05:00:35;;;;;;;19.20;8.80;;;;;;;;;;10316506;28;20052;-81
2023/05/01 05:05:36;;;;;;;23.77;9.70;;;;;;;;;;10321649;28;20092;-82
2023/05/01 05:10:37;;;;;;;19.20;8.87;;;;;;;;;;10331577;28;20181;-83
2023/05/01 05:15:38;;;;;;;21.77;9.70;;;;;;;;;;10323516;28;20544;-81
2023/05/01 05:20:40;;;;;;;21.20;11.23;;;;;;;;;;10333595;28;20182;-81
2023/05/01 05:25:41;;;;;;;23.77;10.10;;;;;;;;;;10319341;28;20042;-81
2023/05/01 05:30:43;;;;;;;24.03;12.53;;;;;;;;;;10323095;28;20128;-81
2023/05/01 05:35:44;;;;;;;37.67;15.63;;;;;;;;;;10326764;28;20030;-81
2023/05/01 05:40:46;;;;;;;29.57;12.53;;;;;;;;;;10326657;28;20111;-82
2023/05/01 05:45:47;;;;;;;22.57;11.03;;;;;;;;;;10327735;28;20030;-81
2023/05/01 05:50:51;;;;;;;22.23;9.13;;;;;;;;;;10320456;28;20050;-82
2023/05/01 05:55:54;;;;;;;24.07;9.67;;;;;;;;;;10318949;28;20022;-81
2023/05/01 06:00:55;;;;;;;21.90;9.33;;;;;;;;;;10331953;28;20042;-81
2023/05/01 06:05:56;;;;;;;16.27;7.73;;;;;;;;;;10327000;28;20030;-83
2023/05/01 06:10:57;;;;;;;15.30;6.87;;;;;;;;;;10337136;23;20072;-81
2023/05/01 06:16:02;;;;;;;26.07;11.00;;;;;;;;;;10326068;28;20034;-81
2023/05/01 06:21:05;;;;;;;12.03;5.97;;;;;;;;;;10325953;28;20046;-80
2023/05/01 06:26:06;;;;;;;20.93;6.23;;;;;;;;;;10326694;28;20040;-81
2023/05/01 06:31:07;;;;;;;12.67;6.50;;;;;;;;;;10325771;28;20027;-80
2023/05/01 06:36:10;;;;;;;13.98;6.75;;;;;;;;;;10326372;28;20508;-79
2023/05/01 06:41:13;;;;;;;13.00;5.60;;;;;;;;;;10326070;28;20034;-81
2023/05/01 06:46:16;;;;;;;11.82;4.95;;;;;;;;;;10325403;28;20698;-79
2023/05/01 06:51:17;;;;;;;7.82;3.20;;;;;;;;;;10324390;28;20038;-80
2023/05/01 06:56:18;;;;;;;8.32;3.28;;;;;;;;;;10317526;28;20049;-80
2023/05/01 07:01:19;;;;;;;11.68;3.83;;;;;;;;;;10325004;28;20201;-81
2023/05/01 07:06:21;;;;;;;6.15;3.78;;;;;;;;;;10325448;28;20019;-80
2023/05/01 07:11:22;;;;;;;6.90;3.40;;;;;;;;;;10324247;28;20062;-80
2023/05/01 07:16:23;;;;;;;9.85;3.28;;;;;;;;;;10314021;28;20034;-80
2023/05/01 07:21:28;;;;;;;6.38;3.08;;;;;;;;;;10323746;28;20045;-82
2023/05/01 07:26:32;;;;;;;4.83;2.87;;;;;;;;;;10305068;28;20038;-82
2023/05/01 07:31:36;;;;;;;6.85;3.05;;;;;;;;;;10315439;28;20304;-81
2023/05/01 07:36:40;;;;;;;7.35;2.67;;;;;;;;;;10323630;28;20053;-80
2023/05/01 07:41:47;;;;;;;6.00;2.75;;;;;;;;;;10323729;28;20390;-81
2023/05/01 07:46:50;;;;;;;7.22;3.05;;;;;;;;;;10323339;28;20038;-81
2023/05/01 07:51:51;;;;;;;7.15;2.70;;;;;;;;;;10303014;28;20046;-83
2023/05/01 07:56:53;;;;;;;9.43;2.35;;;;;;;;;;10308872;28;20033;-80
2023/05/01 08:01:54;;;;;;;5.60;2.63;;;;;;;;;;10322503;28;20635;-80
2023/05/01 08:06:55;;;;;;;4.53;2.00;;;;;;;;;;10321976;28;20048;-82
2023/05/01 08:11:56;;;;;;;3.95;2.20;;;;;;;;;;10312227;28;20069;-82
2023/05/01 08:16:57;;;;;;;6.00;2.13;;;;;;;;;;10319424;28;20035;-79
2023/05/01 08:22:00;;;;;;;5.18;2.00;;;;;;;;;;10322028;28;20474;-80
2023/05/01 08:27:01;;;;;;;5.10;2.42;;;;;;;;;;10320219;28;20042;-79
2023/05/01 08:32:02;;;;;;;4.63;2.30;;;;;;;;;;10318751;28;20046;-79
2023/05/01 08:37:03;;;;;;;6.13;1.90;;;;;;;;;;10319231;28;20510;-81
2023/05/01 08:42:04;;;;;;;4.30;2.58;;;;;;;;;;10320700;28;20034;-79
2023/05/01 08:47:17;;;;;;;7.38;3.17;;;;;;;;;;10320764;28;20032;-81
2023/05/01 08:52:19;;;;;;;6.35;2.40;;;;;;;;;;10321861;28;20038;-79
2023/05/01 08:57:21;;;;;;;6.28;2.08;;;;;;;;;;10319347;28;20031;-81
2023/05/01 09:02:22;;;;;;;6.15;3.15;;;;;;;;;;10318354;28;20129;-81
2023/05/01 09:07:24;;;;;;;12.10;3.25;;;;;;;;;;10320265;28;20034;-79
2023/05/01 09:12:26;;;;;;;7.88;2.63;;;;;;;;;;10319460;28;20498;-81
2023/05/01 09:17:29;;;;;;;11.13;2.47;;;;;;;;;;10320975;28;20058;-80
2023/05/01 09:22:39;;;;;;;5.57;2.45;;;;;;;;;;10308112;28;20030;-81
2023/05/01 09:27:40;;;;;;;5.32;2.20;;;;;;;;;;10308402;28;20045;-80
2023/05/01 09:32:41;;;;;;;5.85;2.38;;;;;;;;;;10312394;28;20046;-79
2023/05/01 09:37:44;;;;;;;3.60;2.30;;;;;;;;;;10289017;28;20049;-78
2023/05/01 09:42:50;;;;;;;6.55;2.08;;;;;;;;;;10297121;28;20394;-79
2023/05/01 09:47:51;;;;;;;;;;;;;;;;;;10299652;28;20490;-81
2023/05/01 09:52:54;;;;;;;5.65;1.80;;;;;;;;;;10299748;28;19925;-81
2023/05/01 09:57:55;;;;;;;3.20;1.85;;;;;;;;;;10287511;28;20580;-80
2023/05/01 10:02:56;;;;;;;6.43;2.50;;;;;;;;;;10301889;28;20039;-81
2023/05/01 10:08:04;;;;;;;5.15;2.22;;;;;;;;;;10320212;28;20117;-81
2023/05/01 10:13:21;;;;;;;4.95;2.08;;;;;;;;;;10314790;28;20187;-81
2023/05/01 10:18:22;;;;;;;3.88;2.28;;;;;;;;;;10312920;28;20033;-81
2023/05/01 10:23:24;;;;;;;5.47;2.33;;;;;;;;;;10311816;28;20031;-80
2023/05/01 10:28:27;;;;;;;5.30;2.13;;;;;;;;;;10312523;28;20081;-82
2023/05/01 10:33:32;;;;;;;3.65;2.05;;;;;;;;;;10325605;28;20046;-81
2023/05/01 10:38:36;;;;;;;3.13;1.70;;;;;;;;;;10326741;28;20037;-81
2023/05/01 10:43:37;;;;;;;3.87;2.00;;;;;;;;;;10311656;28;20698;-80
2023/05/01 10:48:39;;;;;;;3.42;2.17;;;;;;;;;;10321362;28;20097;-80
2023/05/01 10:53:43;;;;;;;3.67;1.67;;;;;;;;;;10325218;28;20042;-80
2023/05/01 10:58:50;;;;;;;3.72;1.92;;;;;;;;;;10306917;28;20034;-80
2023/05/01 11:03:51;;;;;;;3.47;1.85;;;;;;;;;;10324478;28;20498;-80
2023/05/01 11:08:52;;;;;;;5.13;1.77;;;;;;;;;;10320841;28;20045;-82
2023/05/01 11:14:03;;;;;;;2.58;1.48;;;;;;;;;;10324674;28;20052;-79
2023/05/01 11:19:04;;;;;;;3.28;1.88;;;;;;;;;;10313533;28;20749;-80
2023/05/01 11:35:26;;;;;;;7.32;1.98;;;;;;;;;;10321716;28;20034;-81
2023/05/01 12:02:19;;;;;;;3.75;1.73;;;;;;;;;;10585438;23;20066;-78
2023/05/01 12:07:20;;;;;;;2.83;1.40;;;;;;;;;;10281350;28;20022;-78
2023/05/01 12:13:08;;;;;;;;;;;;;;;;;;;;;
2023/05/01 12:18:17;;;;;;;2.78;1.90;;;;;;;;;;10267465;28;20038;-80
2023/05/01 12:23:20;;;;;;;1.92;1.40;;;;;;;;;;10281450;28;20027;-79
2023/05/01 12:28:21;;;;;;;3.45;1.58;;;;;;;;;;10276745;28;20697;-77
2023/05/01 12:33:22;;;;;;;2.15;1.40;;;;;;;;;;10277254;28;20039;-78
2023/05/01 12:38:23;;;;;;;3.40;1.88;;;;;;;;;;10280001;28;20042;-80
2023/05/01 12:43:34;;;;;;;3.70;1.30;;;;;;;;;;10265531;28;20503;-77
2023/05/01 12:48:48;;;;;;;2.88;1.52;;;;;;;;;;10272416;28;20034;-77
2023/05/01 12:53:56;;;;;;;2.17;1.42;;;;;;;;;;10267312;28;20046;-78
2023/05/01 12:58:57;;;;;;;2.95;1.83;;;;;;;;;;10263419;28;20550;-78
2023/05/01 13:03:58;;;;;;;3.17;1.83;;;;;;;;;;10279172;28;20365;-79
2023/05/01 13:09:08;;;;;;;2.88;1.40;;;;;;;;;;10280285;28;20023;-78
2023/05/01 13:14:09;;;;;;;4.95;1.23;;;;;;;;;;10271540;28;20051;-79
2023/05/01 13:19:10;;;;;;;3.70;1.67;;;;;;;;;;10279414;28;20474;-79
2023/05/01 13:24:12;;;;;;;1.77;1.25;;;;;;;;;;10273093;28;20050;-78
2023/05/01 13:29:18;;;;;;;4.03;1.65;;;;;;;;;;10277660;28;20031;-77
2023/05/01 13:34:26;;;;;;;2.38;1.63;;;;;;;;;;10264382;28;20051;-77
2023/05/01 13:39:27;;;;;;;2.95;1.83;;;;;;;;;;10264033;28;20120;-78
2023/05/01 13:44:30;;;;;;;3.72;1.70;;;;;;;;;;10282187;28;20178;-78
2023/05/01 13:49:31;;;;;;;3.60;1.98;;;;;;;;;;10286909;28;20413;-79
2023/05/01 13:54:33;;;;;;;5.60;2.00;;;;;;;;;;10278272;28;20019;-80
2023/05/01 13:59:38;;;;;;;2.35;1.70;;;;;;;;;;10281713;28;20059;-79
2023/05/01 14:04:39;;;;;;;;;;;;;;;;;;10282425;28;20383;-80
2023/05/01 14:09:42;;;;;;;4.90;2.70;;;;;;;;;;10280276;28;19910;-80
2023/05/01 14:14:48;;;;;;;3.80;1.95;;;;;;;;;;10285546;28;20503;-80
2023/05/01 14:19:51;;;;;;;5.00;2.10;;;;;;;;;;10287386;28;20037;-80
2023/05/01 14:24:54;;;;;;;27.17;12.15;;;;;;;;;;10285881;28;20030;-80
2023/05/01 14:29:55;;;;;;;3.85;2.63;;;;;;;;;;10285972;28;20039;-79
2023/05/01 14:34:56;;;;;;;7.70;4.78;;;;;;;;;;10274315;28;20483;-81
2023/05/01 14:39:57;;;;;;;3.50;2.15;;;;;;;;;;10263463;28;20038;-81
2023/05/01 14:44:59;;;;;;;3.75;2.20;;;;;;;;;;10280294;28;20030;-81
2023/05/01 14:50:00;;;;;;;3.10;2.50;;;;;;;;;;10268008;28;20039;-80
2023/05/01 14:55:01;;;;;;;4.47;2.50;;;;;;;;;;10281571;28;20027;-80
2023/05/01 15:00:05;;;;;;;3.00;2.13;;;;;;;;;;10283527;28;20169;-80
2023/05/01 15:05:06;;;;;;;3.88;2.78;;;;;;;;;;10284703;28;20026;-80
2023/05/01 15:10:08;;;;;;;4.40;1.98;;;;;;;;;;10282789;28;20035;-81
2023/05/01 15:15:10;;;;;;;6.75;2.50;;;;;;;;;;10272174;28;20050;-81
2023/05/01 15:20:11;;;;;;;4.65;3.13;;;;;;;;;;10283517;28;20027;-80
2023/05/01 15:25:13;;;;;;;5.22;2.20;;;;;;;;;;10281518;28;20039;-81
2023/05/01 15:30:14;;;;;;;5.38;3.03;;;;;;;;;;10282720;28;20037;-81
2023/05/01 15:35:16;;;;;;;5.43;2.90;;;;;;;;;;10281402;28;20166;-82
2023/05/01 15:40:17;;;;;;;5.28;2.47;;;;;;;;;;10276305;28;20031;-81
2023/05/01 15:45:18;;;;;;;5.95;2.97;;;;;;;;;;10279152;28;20379;-80
2023/05/01 15:50:22;;;;;;;4.38;2.38;;;;;;;;;;10273577;28;20047;-81
2023/05/01 15:55:23;;;;;;;3.10;2.22;;;;;;;;;;10271115;28;20039;-81
2023/05/01 16:00:25;;;;;;;6.45;3.22;;;;;;;;;;10273775;28;20058;-82
2023/05/01 16:05:26;;;;;;;4.60;2.70;;;;;;;;;;10264409;28;20448;-79
2023/05/01 16:10:27;;;;;;;8.90;3.33;;;;;;;;;;10265159;28;20085;-80
2023/05/01 16:15:31;;;;;;;7.03;3.53;;;;;;;;;;10264928;28;20580;-80
2023/05/01 16:20:41;;;;;;;8.50;5.40;;;;;;;;;;10257223;28;20082;-79
2023/05/01 16:25:42;;;;;;;4.70;2.80;;;;;;;;;;10266355;28;20046;-78
2023/05/01 16:30:44;;;;;;;5.55;3.65;;;;;;;;;;10278008;28;20467;-79
2023/05/01 16:35:49;;;;;;;6.53;3.05;;;;;;;;;;10277771;28;20149;-79
2023/05/01 16:40:50;;;;;;;4.60;2.85;;;;;;;;;;10279862;28;20479;-80
2023/05/01 16:45:52;;;;;;;8.82;3.53;;;;;;;;;;10275171;28;20084;-79
2023/05/01 16:50:53;;;;;;;9.98;4.00;;;;;;;;;;10276864;28;20045;-80
2023/05/01 16:55:54;;;;;;;8.18;4.43;;;;;;;;;;10279513;28;20053;-80
2023/05/01 17:00:56;;;;;;;10.27;3.30;;;;;;;;;;10265338;28;20181;-79
2023/05/01 17:05:58;;;;;;;9.05;4.03;;;;;;;;;;10274804;28;20027;-82
2023/05/01 17:11:00;;;;;;;6.10;3.45;;;;;;;;;;10278833;28;20038;-80
2023/05/01 17:16:01;;;;;;;7.88;4.15;;;;;;;;;;10276131;28;20029;-78
2023/05/01 17:21:02;;;;;;;12.20;5.72;;;;;;;;;;10277554;28;20054;-79
2023/05/01 17:26:04;;;;;;;14.75;6.07;;;;;;;;;;10274455;28;20121;-79
2023/05/01 17:31:05;;;;;;;10.90;5.05;;;;;;;;;;10274966;28;20043;-79
2023/05/01 17:36:06;;;;;;;9.32;5.20;;;;;;;;;;10275675;28;20032;-78
2023/05/01 17:41:07;;;;;;;9.30;4.07;;;;;;;;;;10275815;28;20038;-81
2023/05/01 17:46:08;;;;;;;9.75;4.18;;;;;;;;;;10276210;28;20388;-83
2023/05/01 17:51:09;;;;;;;10.65;4.40;;;;;;;;;;10274771;28;20441;-79
2023/05/01 17:56:10;;;;;;;8.02;3.40;;;;;;;;;;10278594;28;20050;-80
2023/05/01 18:01:11;;;;;;;7.40;3.53;;;;;;;;;;10277317;28;20062;-79
2023/05/01 18:06:12;;;;;;;6.85;3.50;;;;;;;;;;10275673;28;20042;-81
2023/05/01 18:11:13;;;;;;;8.02;4.03;;;;;;;;;;10277195;28;20070;-78
2023/05/01 18:16:14;;;;;;;16.77;7.72;;;;;;;;;;10282840;28;20486;-78
2023/05/01 18:21:15;;;;;;;15.52;6.18;;;;;;;;;;10284916;28;20031;-78
2023/05/01 18:26:18;;;;;;;10.05;4.13;;;;;;;;;;10286013;28;20135;-78
2023/05/01 18:31:18;;;;;;;9.30;4.30;;;;;;;;;;10285295;28;20066;-78
2023/05/01 18:36:20;;;;;;;11.18;4.60;;;;;;;;;;10284906;28;20125;-77
2023/05/01 18:41:21;;;;;;;14.82;5.47;;;;;;;;;;10281932;28;20130;-78
2023/05/01 18:46:22;;;;;;;14.05;5.18;;;;;;;;;;10275521;28;20599;-78
2023/05/01 18:51:24;;;;;;;16.98;6.05;;;;;;;;;;10280847;28;20137;-78
2023/05/01 18:56:26;;;;;;;14.60;6.85;;;;;;;;;;10284542;28;20035;-78
2023/05/01 19:01:27;;;;;;;17.27;6.18;;;;;;;;;;10284760;28;20082;-77
2023/05/01 19:06:28;;;;;;;11.45;5.10;;;;;;;;;;10285334;28;20137;-82
2023/05/01 19:11:30;;;;;;;13.05;4.93;;;;;;;;;;10269261;28;20035;-82
2023/05/01 19:16:31;;;;;;;16.48;7.13;;;;;;;;;;10275221;28;20129;-80
2023/05/01 19:21:44;;;;;;;14.82;7.63;;;;;;;;;;10273638;28;20183;-80
2023/05/01 19:27:10;;;;;;;26.70;15.07;;;;;;;;;;10274230;28;20046;-82
2023/05/01 19:32:17;;;;;;;30.05;17.05;;;;;;;;;;10276646;28;20043;-79
2023/05/01 19:37:18;;;;;;;26.23;12.95;;;;;;;;;;10280314;28;20126;-79
2023/05/01 19:42:19;;;;;;;12.32;6.80;;;;;;;;;;10256869;28;20042;-79
2023/05/01 19:47:20;;;;;;;12.00;6.30;;;;;;;;;;10265874;28;20388;-81
2023/05/01 19:52:23;;;;;;;20.05;7.38;;;;;;;;;;10281684;28;20049;-79
2023/05/01 19:57:24;;;;;;;12.88;6.10;;;;;;;;;;10267011;28;20030;-77
2023/05/01 20:02:25;;;;;;;11.60;5.53;;;;;;;;;;10278164;28;20113;-82
2023/05/01 20:07:27;;;;;;;11.98;5.82;;;;;;;;;;10272268;28;20035;-79
2023/05/01 20:12:29;;;;;;;13.80;6.30;;;;;;;;;;10256819;28;20039;-80
2023/05/01 20:17:32;;;;;;;12.60;6.28;;;;;;;;;;10266442;28;20034;-78
2023/05/01 20:22:33;;;;;;;15.45;6.60;;;;;;;;;;10264416;28;20046;-80
2023/05/01 20:27:34;;;;;;;16.20;6.20;;;;;;;;;;10279117;28;20734;-79
2023/05/01 20:32:41;;;;;;;17.13;7.07;;;;;;;;;;10267259;28;20039;-79
2023/05/01 20:37:41;;;;;;;13.57;6.43;;;;;;;;;;10275611;28;20497;-80
2023/05/01 20:42:45;;;;;;;12.82;6.32;;;;;;;;;;10270441;28;20127;-79
2023/05/01 20:47:52;;;;;;;17.25;6.95;;;;;;;;;;10265452;28;20122;-79
2023/05/01 20:53:04;;;;;;;12.88;5.90;;;;;;;;;;10274455;28;20090;-80
2023/05/01 20:58:06;;;;;;;12.50;6.53;;;;;;;;;;10261098;28;20097;-80
2023/05/01 21:03:13;;;;;;;13.18;6.50;;;;;;;;;;10253628;28;20387;-80
2023/05/01 21:08:14;;;;;;;17.55;8.32;;;;;;;;;;10250107;28;20403;-81
2023/05/01 21:13:17;;;;;;;15.82;7.65;;;;;;;;;;10263128;28;20714;-80
2023/05/01 21:18:21;;;;;;;17.70;7.90;;;;;;;;;;10270344;28;20034;-81
2023/05/01 21:23:25;;;;;;;17.48;8.50;;;;;;;;;;10256327;28;20038;-81
2023/05/01 21:28:26;;;;;;;15.43;7.37;;;;;;;;;;10256487;28;20031;-80
2023/05/01 21:33:28;;;;;;;15.80;7.65;;;;;;;;;;10274258;28;20039;-82
2023/05/01 21:38:30;;;;;;;14.37;6.93;;;;;;;;;;10272566;28;20035;-80
2023/05/01 21:43:35;;;;;;;13.70;7.03;;;;;;;;;;10267724;28;20039;-81
2023/05/01 21:48:36;;;;;;;11.23;5.70;;;;;;;;;;10275383;28;20031;-79
2023/05/01 21:53:39;;;;;;;15.07;6.80;;;;;;;;;;10275271;28;20310;-81
2023/05/01 21:58:43;;;;;;;15.20;6.73;;;;;;;;;;10287938;28;20069;-81
2023/05/01 22:03:46;;;;;;;12.57;6.67;;;;;;;;;;10283151;28;20047;-80
2023/05/01 22:08:46;;;;;;;15.27;6.97;;;;;;;;;;10275967;28;20043;-82
2023/05/01 22:13:47;;;;;;;12.10;7.23;;;;;;;;;;10283657;28;20537;-79
2023/05/01 22:18:49;;;;;;;14.13;6.33;;;;;;;;;;10285298;28;20031;-80
2023/05/01 22:23:55;;;;;;;14.93;6.47;;;;;;;;;;10268487;28;20054;-80
2023/05/01 22:28:58;;;;;;;15.98;6.50;;;;;;;;;;10285844;28;20502;-80
2023/05/01 22:34:03;;;;;;;14.13;6.70;;;;;;;;;;10277708;28;20054;-80
2023/05/01 22:39:04;;;;;;;14.77;6.47;;;;;;;;;;10277732;28;20030;-80
2023/05/01 22:44:05;;;;;;;12.30;6.67;;;;;;;;;;10284663;28;20043;-79
2023/05/01 22:49:08;;;;;;;14.33;6.77;;;;;;;;;;10273365;28;20043;-79
2023/05/01 22:54:11;;;;;;;17.50;7.03;;;;;;;;;;10285348;28;20054;-80
2023/05/01 22:59:12;;;;;;;14.47;6.23;;;;;;;;;;10286870;28;20121;-80
2023/05/01 23:04:13;;;;;;;11.30;6.03;;;;;;;;;;10283927;28;20079;-80
2023/05/01 23:09:19;;;;;;;14.00;6.43;;;;;;;;;;10280297;28;20139;-82
2023/05/01 23:14:24;;;;;;;11.75;6.22;;;;;;;;;;10283907;28;20659;-81
2023/05/01 23:19:25;;;;;;;12.27;6.23;;;;;;;;;;10282155;28;20041;-80
2023/05/01 23:24:28;;;;;;;20.73;7.03;;;;;;;;;;10269088;28;20031;-81
2023/05/01 23:29:30;;;;;;;14.53;6.63;;;;;;;;;;10264653;28;20030;-80
2023/05/01 23:34:36;;;;;;;17.13;6.77;;;;;;;;;;10282282;28;20042;-81
2023/05/01 23:39:37;;;;;;;12.57;6.40;;;;;;;;;;10276412;28;20043;-81
2023/05/01 23:44:38;;;;;;;15.90;7.60;;;;;;;;;;10265837;28;20089;-79
2023/05/01 23:49:39;;;;;;;23.27;8.07;;;;;;;;;;10283123;28;20451;-80
2023/05/01 23:54:42;;;;;;;13.47;7.20;;;;;;;;;;10282388;28;20046;-79
2023/05/01 23:59:43;;;;;;;18.73;7.67;;;;;;;;;;10272822;28;20058;-81
